createdAt,value
2022-11-05T00:00:38.485Z,95930.63
2022-11-05T00:03:26.324Z,95933.53
2022-11-05T00:06:12.680Z,95935.19
2022-11-05T00:08:59.703Z,95936.44
2022-11-05T00:11:41.950Z,95935.09
2022-11-05T00:14:27.510Z,95928.78
2022-11-05T00:16:55.821Z,95936.50
2022-11-05T00:19:25.593Z,95941.50
2022-11-05T00:22:11.478Z,95940.91
2022-11-05T00:24:57.229Z,95955.44
2022-11-05T00:27:25.505Z,95958.72
2022-11-05T00:29:53.810Z,95951.38
2022-11-05T00:32:22.165Z,95953.47
2022-11-05T00:34:51.862Z,95958.25
2022-11-05T00:37:20.197Z,95962.94
2022-11-05T00:39:48.448Z,95961.78
2022-11-05T00:42:34.497Z,95961.91
2022-11-05T00:45:02.966Z,95961.63
2022-11-05T00:47:49.325Z,95969.47
2022-11-05T00:50:19.868Z,95972.72
2022-11-05T00:52:57.813Z,95979.28
2022-11-05T00:55:34.586Z,95983.78
2022-11-05T00:58:04.911Z,95997.25
2022-11-05T01:00:34.077Z,95974.75
2022-11-05T01:03:03.762Z,95977.25
2022-11-05T01:05:34.175Z,95967.19
2022-11-05T01:08:02.551Z,95972.50
2022-11-05T01:10:31.923Z,95971.78
2022-11-05T01:13:00.342Z,95972.78
2022-11-05T01:15:28.908Z,95976.38
2022-11-05T01:17:57.212Z,95979.25
2022-11-05T01:20:25.654Z,95978.91
2022-11-05T01:22:55.344Z,95983.56
2022-11-05T01:25:23.785Z,95994.81
2022-11-05T01:27:52.169Z,95988.22
2022-11-05T01:30:20.667Z,95993.06
2022-11-05T01:32:48.986Z,95991.09
2022-11-05T01:35:18.664Z,95999.63
2022-11-05T01:37:47.508Z,96000.78
2022-11-05T01:40:19.109Z,96000.78
2022-11-05T01:42:47.510Z,96006.03
2022-11-05T01:45:18.673Z,96014.09
2022-11-05T01:47:54.502Z,96008.84
2022-11-05T01:50:30.858Z,96011.25
2022-11-05T01:53:04.566Z,96011.63
2022-11-05T01:55:36.871Z,96010.81
2022-11-05T01:58:07.789Z,96011.44
2022-11-05T02:00:36.424Z,96002.47
2022-11-05T02:03:05.024Z,96007.91
2022-11-05T02:05:34.384Z,96009.88
2022-11-05T02:08:03.272Z,96004.97
2022-11-05T02:10:31.900Z,96007.94
2022-11-05T02:13:03.668Z,96007.47
2022-11-05T02:15:39.707Z,96005.13
2022-11-05T02:18:17.036Z,96004.72
2022-11-05T02:20:52.430Z,96010.22
2022-11-05T02:23:38.955Z,96011.97
2022-11-05T02:26:51.741Z,96006.91
2022-11-05T02:30:07.413Z,96010.88
2022-11-05T02:32:57.129Z,96014.44
2022-11-05T02:35:37.154Z,96026.91
2022-11-05T02:38:08.995Z,96027.25
2022-11-05T02:40:45.136Z,96020.94
2022-11-05T02:43:17.416Z,96018.03
2022-11-05T02:45:50.474Z,96024.88
2022-11-05T02:48:24.909Z,96039.34
2022-11-05T02:50:59.361Z,96022.28
2022-11-05T02:53:34.307Z,96022.31
2022-11-05T02:56:05.274Z,96026.06
2022-11-05T02:58:35.762Z,96025.91
2022-11-05T03:01:07.145Z,96030.44
2022-11-05T03:03:38.793Z,96025.44
2022-11-05T03:06:30.185Z,96029.72
2022-11-05T03:09:11.501Z,96033.06
2022-11-05T03:11:48.227Z,96031.38
2022-11-05T03:14:23.435Z,96035.56
2022-11-05T03:16:57.173Z,96043.78
2022-11-05T03:19:31.382Z,96047.03
2022-11-05T03:22:03.813Z,96053.63
2022-11-05T03:24:34.443Z,96059.72
2022-11-05T03:27:03.822Z,96067.31
2022-11-05T03:29:36.707Z,96065.41
2022-11-05T03:32:06.328Z,96073.47
2022-11-05T03:34:38.523Z,96079.16
2022-11-05T03:37:07.534Z,96083.13
2022-11-05T03:39:40.053Z,96088.16
2022-11-05T03:42:10.878Z,96098.38
2022-11-05T03:44:43.196Z,96105.59
2022-11-05T03:47:15.114Z,96116.03
2022-11-05T03:49:52.626Z,96110.31
2022-11-05T03:52:23.174Z,96114.75
2022-11-05T03:54:51.668Z,96119.97
2022-11-05T03:57:22.483Z,96110.44
2022-11-05T03:59:52.036Z,96119.97
2022-11-05T04:02:21.780Z,96118.50
2022-11-05T04:04:51.611Z,96118.56
2022-11-05T04:07:37.353Z,96121.16
2022-11-05T04:10:23.687Z,96131.59
2022-11-05T04:13:24.216Z,96118.31
2022-11-05T04:16:09.910Z,96121.06
2022-11-05T04:18:38.577Z,96127.09
2022-11-05T04:21:27.124Z,96130.72
2022-11-05T04:24:10.656Z,96130.44
2022-11-05T04:26:40.092Z,96151.81
2022-11-05T04:29:26.368Z,96150.25
2022-11-05T04:31:54.714Z,96130.50
2022-11-05T04:34:23.220Z,96133.09
2022-11-05T04:36:53.798Z,96130.16
2022-11-05T04:39:22.103Z,96138.97
2022-11-05T04:41:50.309Z,96142.28
2022-11-05T04:44:18.725Z,96141.63
2022-11-05T04:46:47.072Z,96132.28
2022-11-05T04:49:15.415Z,96140.25
2022-11-05T04:51:44.001Z,96137.38
2022-11-05T04:54:13.648Z,96156.38
2022-11-05T04:56:41.957Z,96158.41
2022-11-05T04:59:10.866Z,96152.47
2022-11-05T05:01:39.306Z,96152.38
2022-11-05T05:04:07.676Z,96158.69
2022-11-05T05:06:36.428Z,96157.94
2022-11-05T05:09:04.994Z,96149.56
2022-11-05T05:11:34.657Z,96162.66
2022-11-05T05:14:02.974Z,96162.19
2022-11-05T05:16:31.242Z,96167.88
2022-11-05T05:18:59.571Z,96171.38
2022-11-05T05:21:38.914Z,96169.88
2022-11-05T05:24:09.680Z,96161.06
2022-11-05T05:26:39.425Z,96163.78
2022-11-05T05:29:07.859Z,96176.22
2022-11-05T05:31:36.230Z,96168.66
2022-11-05T05:34:04.840Z,96171.47
2022-11-05T05:36:33.895Z,96168.41
2022-11-05T05:39:02.318Z,96172.19
2022-11-05T05:41:30.593Z,96175.72
2022-11-05T05:44:00.352Z,96181.47
2022-11-05T05:46:28.660Z,96179.44
2022-11-05T05:48:56.953Z,96170.31
2022-11-05T05:51:25.187Z,96174.69
2022-11-05T05:53:54.770Z,96195.56
2022-11-05T05:56:23.320Z,96187.25
2022-11-05T05:58:52.341Z,96189.50
2022-11-05T06:01:22.338Z,96189.16
2022-11-05T06:03:50.982Z,96192.41
2022-11-05T06:06:21.060Z,96188.81
2022-11-05T06:08:49.788Z,96192.75
2022-11-05T06:11:18.098Z,96191.97
2022-11-05T06:13:46.457Z,96203.19
2022-11-05T06:16:14.735Z,96208.75
2022-11-05T06:18:44.434Z,96218.91
2022-11-05T06:21:15.860Z,96219.72
2022-11-05T06:23:46.048Z,96228.69
2022-11-05T06:26:15.965Z,96229.81
2022-11-05T06:28:44.654Z,96240.13
2022-11-05T06:31:14.338Z,96240.44
2022-11-05T06:33:44.376Z,96244.41
2022-11-05T06:36:16.884Z,96241.91
2022-11-05T06:38:45.280Z,96242.19
2022-11-05T06:41:13.690Z,96244.50
2022-11-05T06:43:42.599Z,96250.00
2022-11-05T06:46:11.358Z,96251.88
2022-11-05T06:48:40.392Z,96248.56
2022-11-05T06:51:10.762Z,96260.22
2022-11-05T06:53:39.047Z,96257.25
2022-11-05T06:56:08.774Z,96261.63
2022-11-05T06:58:37.386Z,96270.63
2022-11-05T07:01:08.201Z,96266.84
2022-11-05T07:03:36.945Z,96271.81
2022-11-05T07:06:06.175Z,96281.06
2022-11-05T07:08:36.973Z,96286.50
2022-11-05T07:11:05.934Z,96283.69
2022-11-05T07:16:20.252Z,96295.84
2022-11-05T07:18:48.523Z,96293.75
2022-11-05T07:21:16.766Z,96294.75
2022-11-05T07:23:46.445Z,96301.91
2022-11-05T07:26:15.024Z,96299.28
2022-11-05T07:28:43.328Z,96298.78
2022-11-05T07:31:11.637Z,96308.38
2022-11-05T07:33:39.968Z,96315.91
2022-11-05T07:36:10.515Z,96305.44
2022-11-05T07:38:38.861Z,96313.63
2022-11-05T07:41:08.684Z,96318.69
2022-11-05T07:43:37.122Z,96321.84
2022-11-05T07:46:08.639Z,96322.66
2022-11-05T07:48:41.103Z,96324.84
2022-11-05T07:51:09.522Z,96334.81
2022-11-05T07:53:42.435Z,96325.63
2022-11-05T07:56:14.895Z,96336.03
2022-11-05T07:58:43.256Z,96335.03
2022-11-05T08:01:11.744Z,96342.25
2022-11-05T08:06:25.897Z,96336.41
2022-11-05T08:08:54.196Z,96346.22
2022-11-05T08:11:23.936Z,96344.31
2022-11-05T08:13:52.273Z,96348.97
2022-11-05T08:16:20.537Z,96339.78
2022-11-05T08:18:48.809Z,96342.91
2022-11-05T08:21:17.213Z,96344.81
2022-11-05T08:23:45.583Z,96346.75
2022-11-05T08:26:13.865Z,96348.25
2022-11-05T08:28:43.487Z,96349.81
2022-11-05T08:31:12.015Z,96359.75
2022-11-05T08:33:40.324Z,96355.34
2022-11-05T08:36:08.908Z,96355.22
2022-11-05T08:38:37.203Z,96351.13
2022-11-05T08:41:05.899Z,96346.44
2022-11-05T08:43:34.157Z,96343.75
2022-11-05T08:46:03.856Z,96357.41
2022-11-05T08:48:32.140Z,96352.19
2022-11-05T08:51:01.896Z,96348.97
2022-11-05T08:53:30.170Z,96343.53
2022-11-05T08:56:01.392Z,96343.22
2022-11-05T08:58:29.684Z,96355.50
2022-11-05T09:01:03.406Z,96351.88
2022-11-05T09:03:34.516Z,96354.75
2022-11-05T09:06:03.455Z,96350.00
2022-11-05T09:08:31.751Z,96344.94
2022-11-05T09:11:00.039Z,96353.66
2022-11-05T09:13:28.708Z,96360.53
2022-11-05T09:15:59.191Z,96354.88
2022-11-05T09:18:27.561Z,96358.97
2022-11-05T09:20:57.269Z,96361.09
2022-11-05T09:23:25.560Z,96365.41
2022-11-05T09:25:53.859Z,96363.56
2022-11-05T09:28:24.059Z,96363.84
2022-11-05T09:30:53.355Z,96363.16
2022-11-05T09:33:23.998Z,96375.97
2022-11-05T09:35:52.805Z,96371.25
2022-11-05T09:38:22.520Z,96374.88
2022-11-05T09:40:57.256Z,96379.09
2022-11-05T09:43:31.747Z,96377.63
2022-11-05T09:46:03.964Z,96379.44
2022-11-05T09:48:33.722Z,96378.84
2022-11-05T09:51:02.121Z,96391.47
2022-11-05T09:53:31.757Z,96382.34
2022-11-05T09:56:01.685Z,96391.41
2022-11-05T09:58:37.565Z,96389.59
2022-11-05T10:01:10.636Z,96386.63
2022-11-05T10:03:44.795Z,96390.63
2022-11-05T10:06:18.216Z,96391.56
2022-11-05T10:08:51.322Z,96409.47
2022-11-05T10:11:21.925Z,96411.53
2022-11-05T10:13:50.773Z,96404.44
2022-11-05T10:16:24.536Z,96413.06
2022-11-05T10:18:56.253Z,96405.66
2022-11-05T10:21:51.483Z,96406.56
2022-11-05T10:24:17.303Z,96403.63
2022-11-05T10:26:48.719Z,96403.34
2022-11-05T10:29:21.673Z,96412.91
2022-11-05T10:31:50.165Z,96408.03
2022-11-05T10:34:18.936Z,96405.78
2022-11-05T10:36:47.223Z,96405.47
2022-11-05T10:39:19.165Z,96403.88
2022-11-05T10:41:57.584Z,96407.16
2022-11-05T10:44:32.039Z,96411.25
2022-11-05T10:47:09.911Z,96412.72
2022-11-05T10:49:47.560Z,96412.81
2022-11-05T10:52:22.640Z,96409.94
2022-11-05T10:54:53.980Z,96418.75
2022-11-05T10:57:30.120Z,96419.69
2022-11-05T11:00:21.338Z,96414.78
2022-11-05T11:05:39.836Z,96414.13
2022-11-05T11:08:18.703Z,96410.88
2022-11-05T11:10:52.738Z,96416.81
2022-11-05T11:13:23.316Z,96419.94
2022-11-05T11:15:51.786Z,96417.06
2022-11-05T11:18:32.427Z,96411.69
2022-11-05T11:21:14.535Z,96414.91
2022-11-05T11:23:44.124Z,96421.16
2022-11-05T11:26:14.528Z,96428.28
2022-11-05T11:28:45.766Z,96435.00
2022-11-05T11:31:15.703Z,96428.78
2022-11-05T11:33:47.578Z,96434.53
2022-11-05T11:39:17.093Z,96433.25
2022-11-05T11:41:51.268Z,96436.75
2022-11-05T11:44:24.622Z,96433.66
2022-11-05T11:46:55.139Z,96437.16
2022-11-05T11:49:32.595Z,96431.97
2022-11-05T11:52:02.472Z,96426.94
2022-11-05T11:54:32.254Z,96433.47
2022-11-05T11:57:02.042Z,96428.69
2022-11-05T11:59:54.298Z,96428.94
2022-11-05T12:02:35.122Z,96426.91
2022-11-05T12:05:13.367Z,96433.09
2022-11-05T12:07:51.431Z,96437.19
2022-11-05T12:10:29.953Z,96430.66
2022-11-05T12:13:19.610Z,96441.66
2022-11-05T12:15:51.084Z,96439.53
2022-11-05T12:18:26.197Z,96433.59
2022-11-05T12:21:07.020Z,96439.47
2022-11-05T12:23:58.528Z,96441.22
2022-11-05T12:26:35.301Z,96442.03
2022-11-05T12:29:21.638Z,96438.56
2022-11-05T12:31:58.985Z,96446.34
2022-11-05T12:34:38.937Z,96446.94
2022-11-05T12:37:17.779Z,96465.88
2022-11-05T12:39:57.716Z,96468.78
2022-11-05T12:42:35.013Z,96469.19
2022-11-05T12:45:13.870Z,96468.31
2022-11-05T12:47:53.962Z,96465.59
2022-11-05T12:50:26.156Z,96461.50
2022-11-05T12:53:13.083Z,96451.38
2022-11-05T12:55:48.295Z,96452.47
2022-11-05T12:58:23.959Z,96455.03
2022-11-05T13:00:57.270Z,96470.16
2022-11-05T13:03:34.046Z,96464.72
2022-11-05T13:06:06.352Z,96465.97
2022-11-05T13:08:39.801Z,96466.22
2022-11-05T13:11:14.769Z,96466.03
2022-11-05T13:13:46.731Z,96465.22
2022-11-05T13:16:21.198Z,96464.06
2022-11-05T13:18:52.097Z,96464.44
2022-11-05T13:21:23.333Z,96466.75
2022-11-05T13:26:47.109Z,96473.53
2022-11-05T13:29:18.086Z,96468.06
2022-11-05T13:31:52.530Z,96470.34
2022-11-05T13:34:20.957Z,96466.41
2022-11-05T13:37:11.465Z,96466.34
2022-11-05T13:39:45.079Z,96462.78
2022-11-05T13:42:32.810Z,96475.13
2022-11-05T13:45:27.889Z,96480.31
2022-11-05T13:48:28.959Z,96472.41
2022-11-05T13:51:12.269Z,96472.19
2022-11-05T13:54:00.483Z,96472.03
2022-11-05T13:56:39.143Z,96477.44
2022-11-05T13:59:46.258Z,96485.38
2022-11-05T14:02:17.863Z,96484.34
2022-11-05T14:04:49.033Z,96485.28
2022-11-05T14:07:20.193Z,96490.38
2022-11-05T14:09:53.799Z,96495.00
2022-11-05T14:12:24.954Z,96497.88
2022-11-05T14:14:59.092Z,96505.50
2022-11-05T14:17:30.453Z,96496.63
2022-11-05T14:20:25.540Z,96505.19
2022-11-05T14:22:54.507Z,96502.91
2022-11-05T14:25:53.433Z,96501.03
2022-11-05T14:28:50.145Z,96521.91
2022-11-05T14:34:47.096Z,96504.94
2022-11-05T14:37:23.413Z,96506.22
2022-11-05T14:39:52.465Z,96505.66
2022-11-05T14:42:24.620Z,96503.66
2022-11-05T14:45:07.471Z,96505.91
2022-11-05T14:47:38.856Z,96506.88
2022-11-05T14:50:12.773Z,96521.13
2022-11-05T14:52:52.003Z,96513.97
2022-11-05T14:55:28.424Z,96524.97
2022-11-05T14:58:06.715Z,96518.09
2022-11-05T15:00:49.394Z,96527.78
2022-11-05T15:03:52.146Z,96525.22
2022-11-05T15:06:26.488Z,96532.91
2022-11-05T15:09:19.714Z,96530.44
2022-11-05T15:11:58.610Z,96526.66
2022-11-05T15:14:31.594Z,96530.28
2022-11-05T15:17:02.935Z,96533.25
2022-11-05T15:19:33.691Z,96532.84
2022-11-05T15:22:05.607Z,96544.41
2022-11-05T15:24:36.065Z,96546.31
2022-11-05T15:27:07.571Z,96542.81
2022-11-05T15:29:35.907Z,96542.81
2022-11-05T15:32:04.238Z,96544.19
2022-11-05T15:34:35.581Z,96536.28
2022-11-05T15:37:19.697Z,96543.47
2022-11-05T15:39:50.980Z,96542.78
2022-11-05T15:42:22.192Z,96547.78
2022-11-05T15:44:52.013Z,96548.50
2022-11-05T15:47:23.155Z,96552.63
2022-11-05T15:49:54.344Z,96558.59
2022-11-05T15:52:24.542Z,96553.53
2022-11-05T15:55:19.685Z,96558.69
2022-11-05T15:57:51.333Z,96551.22
2022-11-05T16:00:22.292Z,96563.94
2022-11-05T16:02:54.358Z,96556.63
2022-11-05T16:05:23.697Z,96562.63
2022-11-05T16:07:52.227Z,96567.88
2022-11-05T16:10:25.263Z,96570.91
2022-11-05T16:12:53.548Z,96568.34
2022-11-05T16:15:24.500Z,96572.72
2022-11-05T16:17:55.860Z,96569.13
2022-11-05T16:20:28.489Z,96570.34
2022-11-05T16:22:58.385Z,96590.28
2022-11-05T16:25:37.975Z,96586.16
2022-11-05T16:28:08.177Z,96588.19
2022-11-05T16:30:36.420Z,96587.63
2022-11-05T16:33:06.888Z,96592.34
2022-11-05T16:35:40.678Z,96600.78
2022-11-05T16:38:11.777Z,96601.16
2022-11-05T16:40:41.791Z,96595.16
2022-11-05T16:43:18.437Z,96606.78
2022-11-05T16:45:47.475Z,96611.94
2022-11-05T16:48:17.379Z,96607.94
2022-11-05T16:50:46.586Z,96615.69
2022-11-05T16:53:15.265Z,96617.78
2022-11-05T16:55:46.281Z,96621.53
2022-11-05T16:58:20.651Z,96621.44
2022-11-05T17:00:49.964Z,96620.72
2022-11-05T17:03:18.415Z,96623.72
2022-11-05T17:05:46.910Z,96627.13
2022-11-05T17:08:15.611Z,96628.56
2022-11-05T17:10:45.540Z,96640.91
2022-11-05T17:13:16.118Z,96640.84
2022-11-05T17:15:44.563Z,96643.28
2022-11-05T17:18:18.260Z,96644.09
2022-11-05T17:20:48.710Z,96639.88
2022-11-05T17:23:18.779Z,96636.69
2022-11-05T17:25:49.866Z,96642.06
2022-11-05T17:28:18.978Z,96647.97
2022-11-05T17:30:52.144Z,96650.66
2022-11-05T17:36:16.190Z,96652.34
2022-11-05T17:38:44.878Z,96649.28
2022-11-05T17:41:15.719Z,96654.75
2022-11-05T17:43:44.294Z,96660.81
2022-11-05T17:46:14.582Z,96665.94
2022-11-05T17:48:43.542Z,96662.88
2022-11-05T17:51:13.115Z,96668.34
2022-11-05T17:53:41.498Z,96664.81
2022-11-05T17:56:10.933Z,96668.38
2022-11-05T17:58:41.028Z,96672.16
2022-11-05T18:01:10.598Z,96670.94
2022-11-05T18:03:38.960Z,96673.47
2022-11-05T18:06:08.086Z,96683.06
2022-11-05T18:08:36.347Z,96688.88
2022-11-05T18:11:04.752Z,96687.16
2022-11-05T18:13:33.066Z,96698.81
2022-11-05T18:16:02.684Z,96697.59
2022-11-05T18:18:31.092Z,96700.06
2022-11-05T18:20:59.465Z,96692.06
2022-11-05T18:23:27.747Z,96696.78
2022-11-05T18:25:56.101Z,96704.75
2022-11-05T18:28:24.384Z,96703.94
2022-11-05T18:30:52.702Z,96706.75
2022-11-05T18:33:22.423Z,96708.53
2022-11-05T18:35:50.698Z,96703.56
2022-11-05T18:38:18.971Z,96699.91
2022-11-05T18:40:47.286Z,96710.09
2022-11-05T18:43:15.622Z,96709.56
2022-11-05T18:45:43.906Z,96708.03
2022-11-05T18:48:12.568Z,96709.53
2022-11-05T18:50:42.454Z,96701.63
2022-11-05T18:53:10.752Z,96702.19
2022-11-05T18:55:39.908Z,96701.47
2022-11-05T18:58:08.245Z,96696.91
2022-11-05T19:00:36.568Z,96703.66
2022-11-05T19:03:05.112Z,96704.78
2022-11-05T19:05:33.486Z,96707.81
2022-11-05T19:08:03.244Z,96714.59
2022-11-05T19:10:31.522Z,96714.84
2022-11-05T19:13:00.068Z,96715.06
2022-11-05T19:15:28.381Z,96713.69
2022-11-05T19:17:56.661Z,96718.06
2022-11-05T19:20:24.989Z,96713.97
2022-11-05T19:22:53.266Z,96705.00
2022-11-05T19:25:22.921Z,96705.59
2022-11-05T19:27:51.222Z,96702.25
2022-11-05T19:30:19.777Z,96703.63
2022-11-05T19:32:48.071Z,96705.81
2022-11-05T19:35:16.753Z,96703.69
2022-11-05T19:37:45.186Z,96713.09
2022-11-05T19:40:13.522Z,96719.25
2022-11-05T19:42:43.259Z,96720.72
2022-11-05T19:45:38.124Z,96725.03
2022-11-05T19:48:00.342Z,96730.81
2022-11-05T19:50:28.884Z,96730.28
2022-11-05T19:52:57.184Z,96730.06
2022-11-05T19:55:25.619Z,96730.53
2022-11-05T19:57:55.290Z,96740.75
2022-11-05T20:00:23.613Z,96742.78
2022-11-05T20:02:52.115Z,96738.81
2022-11-05T20:05:20.469Z,96741.25
2022-11-05T20:07:52.826Z,96747.81
2022-11-05T20:10:21.852Z,96747.53
2022-11-05T20:12:50.352Z,96741.59
2022-11-05T20:15:20.174Z,96736.00
2022-11-05T20:17:51.966Z,96735.47
2022-11-05T20:20:20.821Z,96732.53
2022-11-05T20:22:49.053Z,96733.47
2022-11-05T20:25:17.489Z,96735.31
2022-11-05T20:27:45.907Z,96731.63
2022-11-05T20:30:14.308Z,96736.84
2022-11-05T20:32:43.942Z,96737.91
2022-11-05T20:35:12.723Z,96737.09
2022-11-05T20:37:41.030Z,96739.28
2022-11-05T20:40:10.485Z,96751.16
2022-11-05T20:42:38.774Z,96756.03
2022-11-05T20:45:08.073Z,96759.34
2022-11-05T20:47:36.491Z,96753.06
2022-11-05T20:50:07.773Z,96758.75
2022-11-05T20:52:36.062Z,96768.03
2022-11-05T20:55:05.249Z,96765.38
2022-11-05T20:57:33.642Z,96769.53
2022-11-05T21:00:01.921Z,96761.72
2022-11-05T21:02:30.375Z,96766.03
2022-11-05T21:04:58.729Z,96759.56
2022-11-05T21:07:28.439Z,96764.72
2022-11-05T21:09:56.898Z,96765.44
2022-11-05T21:12:25.269Z,96760.75
2022-11-05T21:14:53.525Z,96763.59
2022-11-05T21:17:21.793Z,96767.91
2022-11-05T21:19:50.084Z,96760.88
2022-11-05T21:22:18.345Z,96751.88
2022-11-05T21:24:48.054Z,96751.38
2022-11-05T21:27:16.357Z,96749.22
2022-11-05T21:29:44.593Z,96757.75
2022-11-05T21:32:12.907Z,96750.94
2022-11-05T21:34:41.285Z,96756.63
2022-11-05T21:37:09.572Z,96754.09
2022-11-05T21:39:37.829Z,96760.59
2022-11-05T21:42:07.507Z,96761.56
2022-11-05T21:44:35.749Z,96756.41
2022-11-05T21:47:04.974Z,96757.78
2022-11-05T21:49:35.473Z,96748.81
2022-11-05T21:52:21.326Z,96753.13
2022-11-05T21:55:07.232Z,96748.66
2022-11-05T21:57:54.274Z,96755.59
2022-11-05T22:00:22.700Z,96752.28
2022-11-05T22:02:51.119Z,96747.16
2022-11-05T22:05:19.696Z,96756.25
2022-11-05T22:07:48.082Z,96749.44
2022-11-05T22:10:17.189Z,96748.44
2022-11-05T22:12:47.085Z,96748.47
2022-11-05T22:15:15.775Z,96749.28
2022-11-05T22:17:47.111Z,96751.47
2022-11-05T22:20:16.482Z,96744.31
2022-11-05T22:22:44.886Z,96751.97
2022-11-05T22:25:13.967Z,96757.63
2022-11-05T22:27:43.670Z,96758.63
2022-11-05T22:30:15.053Z,96768.41
2022-11-05T22:32:43.360Z,96772.06
2022-11-05T22:35:11.921Z,96771.72
2022-11-05T22:37:41.084Z,96774.72
2022-11-05T22:40:10.262Z,96765.38
2022-11-05T22:42:38.610Z,96767.06
2022-11-05T22:45:07.883Z,96771.22
2022-11-05T22:47:37.584Z,96770.88
2022-11-05T22:50:07.026Z,96770.53
2022-11-05T22:52:35.410Z,96772.22
2022-11-05T22:55:06.109Z,96766.59
2022-11-05T22:57:34.511Z,96785.09
2022-11-05T23:00:02.878Z,96768.34
2022-11-05T23:02:31.244Z,96773.38
2022-11-05T23:05:01.105Z,96767.69
2022-11-05T23:07:46.912Z,96768.69
2022-11-05T23:10:33.025Z,96766.91
2022-11-05T23:13:01.323Z,96756.81
2022-11-05T23:15:47.388Z,96763.75
2022-11-05T23:18:33.327Z,96760.41
2022-11-05T23:21:22.991Z,96750.66
2022-11-05T23:24:06.773Z,96743.34
2022-11-05T23:26:51.305Z,96749.47
2022-11-05T23:29:20.432Z,96752.59
2022-11-05T23:32:06.392Z,96746.75
2022-11-05T23:34:34.685Z,96753.44
2022-11-05T23:37:22.504Z,96742.13
2022-11-05T23:39:51.316Z,96748.94
2022-11-05T23:42:37.132Z,96753.91
2022-11-05T23:45:24.094Z,96745.28
2022-11-05T23:48:10.326Z,96747.44
2022-11-05T23:50:40.098Z,96756.41
2022-11-05T23:53:10.529Z,96746.75
2022-11-05T23:55:39.516Z,96751.09
2022-11-05T23:58:08.146Z,96750.91
